createdAt,value
2023-04-26T00:03:04.753Z,79.68
2023-04-26T00:08:07.850Z,79.73
2023-04-26T00:13:11.042Z,79.80
2023-04-26T00:18:13.648Z,79.83
2023-04-26T00:23:17.390Z,79.79
2023-04-26T00:28:20.259Z,79.79
2023-04-26T00:33:23.071Z,79.81
2023-04-26T00:38:25.716Z,79.89
2023-04-26T00:43:28.382Z,79.89
2023-04-26T00:48:31.062Z,79.81
2023-04-26T00:53:36.776Z,79.93
2023-04-26T00:58:39.482Z,80.04
2023-04-26T01:03:44.557Z,80.04
2023-04-26T01:08:47.328Z,79.99
2023-04-26T01:13:51.549Z,80.00
2023-04-26T01:18:54.732Z,80.03
2023-04-26T01:23:57.445Z,80.03
2023-04-26T01:28:59.976Z,79.97
2023-04-26T01:34:02.540Z,79.89
2023-04-26T01:39:05.778Z,79.98
2023-04-26T01:44:08.420Z,80.01
2023-04-26T01:49:11.141Z,80.01
2023-04-26T01:54:13.733Z,80.05
2023-04-26T01:59:16.358Z,79.84
2023-04-26T02:04:18.965Z,79.82
2023-04-26T02:09:21.570Z,79.80
2023-04-26T02:14:24.165Z,79.74
2023-04-26T02:19:26.965Z,79.68
2023-04-26T02:24:30.585Z,79.60
2023-04-26T02:29:43.974Z,79.60
2023-04-26T02:34:47.826Z,79.61
2023-04-26T02:39:51.831Z,79.59
2023-04-26T02:44:54.553Z,79.50
2023-04-26T02:49:57.248Z,79.50
2023-04-26T02:55:01.124Z,79.53
2023-04-26T03:00:05.671Z,79.57
2023-04-26T03:05:09.552Z,79.54
2023-04-26T03:10:13.028Z,79.52
2023-04-26T03:15:15.858Z,79.62
2023-04-26T03:20:19.494Z,79.69
2023-04-26T03:25:22.163Z,79.62
2023-04-26T03:30:24.836Z,79.64
2023-04-26T03:35:27.477Z,79.71
2023-04-26T03:40:30.124Z,79.68
2023-04-26T03:45:32.757Z,79.59
2023-04-26T03:50:35.368Z,79.61
2023-04-26T03:55:37.970Z,79.88
2023-04-26T04:00:43.806Z,80.29
2023-04-26T04:05:46.496Z,79.47
2023-04-26T04:10:49.377Z,79.29
2023-04-26T04:15:52.325Z,78.72
2023-04-26T04:20:55.109Z,77.89
2023-04-26T04:25:57.847Z,76.99
2023-04-26T04:31:01.879Z,76.14
2023-04-26T04:36:05.232Z,74.87
2023-04-26T04:41:08.985Z,73.54
2023-04-26T04:46:12.667Z,72.36
2023-04-26T04:51:15.646Z,70.49
2023-04-26T04:56:19.480Z,68.80
2023-04-26T05:01:22.459Z,67.96
2023-04-26T05:06:25.463Z,66.68
2023-04-26T05:11:28.230Z,65.69
2023-04-26T05:16:30.837Z,64.82
2023-04-26T05:21:33.714Z,63.21
2023-04-26T05:26:36.698Z,61.39
2023-04-26T05:31:39.323Z,59.97
2023-04-26T05:36:41.912Z,59.37
2023-04-26T05:41:44.690Z,57.97
2023-04-26T05:46:47.522Z,57.01
2023-04-26T05:51:50.324Z,56.98
2023-04-26T05:56:52.945Z,57.13
2023-04-26T06:01:55.660Z,55.76
2023-04-26T06:06:58.606Z,55.20
2023-04-26T06:12:02.355Z,54.58
2023-04-26T06:17:05.121Z,53.65
2023-04-26T06:22:07.782Z,52.54
2023-04-26T06:27:10.381Z,51.90
2023-04-26T06:32:13.071Z,50.56
2023-04-26T06:37:16.243Z,50.12
2023-04-26T06:42:18.838Z,50.22
2023-04-26T06:47:21.658Z,50.01
2023-04-26T06:52:24.384Z,50.03
2023-04-26T06:57:27.006Z,49.88
2023-04-26T07:02:29.981Z,49.49
2023-04-26T07:07:33.254Z,49.07
2023-04-26T07:12:36.041Z,48.77
2023-04-26T07:17:38.753Z,48.74
2023-04-26T07:22:41.374Z,48.61
2023-04-26T07:27:47.503Z,48.13
2023-04-26T07:32:50.426Z,47.74
2023-04-26T07:37:53.164Z,47.42
2023-04-26T07:42:55.796Z,47.42
2023-04-26T07:47:58.523Z,47.61
2023-04-26T07:53:01.122Z,47.74
2023-04-26T07:58:04.433Z,47.76
2023-04-26T08:03:08.364Z,47.54
2023-04-26T08:08:11.101Z,47.54
2023-04-26T08:13:14.205Z,47.94
2023-04-26T08:18:16.956Z,47.87
2023-04-26T08:23:19.713Z,47.63
2023-04-26T08:28:22.266Z,47.67
2023-04-26T08:33:25.729Z,47.53
2023-04-26T08:38:29.703Z,47.71
2023-04-26T08:43:35.495Z,47.71
2023-04-26T08:48:38.143Z,47.75
2023-04-26T08:53:41.883Z,47.97
2023-04-26T08:58:45.047Z,47.89
2023-04-26T09:03:48.356Z,47.81
2023-04-26T09:08:55.036Z,47.65
2023-04-26T09:13:57.767Z,47.51
2023-04-26T09:19:00.852Z,47.02
2023-04-26T09:24:04.724Z,46.56
2023-04-26T09:29:20.528Z,46.24
2023-04-26T09:34:23.267Z,46.12
2023-04-26T09:39:38.160Z,45.48
2023-04-26T09:44:40.811Z,45.17
2023-04-26T09:49:51.815Z,45.13
2023-04-26T09:54:56.910Z,45.01
2023-04-26T10:00:00.901Z,45.28
2023-04-26T10:05:06.205Z,45.35
2023-04-26T10:10:11.750Z,45.69
2023-04-26T10:15:15.515Z,45.67
2023-04-26T10:20:21.318Z,45.65
2023-04-26T10:25:39.106Z,45.78
2023-04-26T10:30:59.713Z,45.74
2023-04-26T10:36:13.770Z,45.78
2023-04-26T10:41:31.083Z,45.87
2023-04-26T10:46:40.268Z,46.06
2023-04-26T10:52:35.593Z,46.02
2023-04-26T10:57:54.352Z,46.22
2023-04-26T11:03:07.098Z,46.29
2023-04-26T11:08:25.016Z,46.31
2023-04-26T11:13:31.736Z,46.49
2023-04-26T11:18:38.765Z,46.65
2023-04-26T11:23:41.640Z,46.66
2023-04-26T11:28:45.723Z,46.67
2023-04-26T11:33:50.624Z,46.71
2023-04-26T11:38:54.276Z,46.85
2023-04-26T11:43:59.695Z,47.02
2023-04-26T11:49:02.483Z,47.15
2023-04-26T11:54:05.169Z,47.38
2023-04-26T11:59:07.992Z,47.63
2023-04-26T12:04:10.937Z,47.73
2023-04-26T12:09:13.990Z,47.65
2023-04-26T12:14:16.640Z,47.72
2023-04-26T12:19:24.146Z,47.87
2023-04-26T12:24:36.997Z,47.97
2023-04-26T12:29:39.740Z,48.26
2023-04-26T12:34:42.342Z,48.67
2023-04-26T12:39:47.062Z,49.17
2023-04-26T12:44:49.648Z,49.59
2023-04-26T12:49:52.436Z,49.92
2023-04-26T12:54:59.547Z,50.15
2023-04-26T13:00:14.787Z,50.35
2023-04-26T13:05:17.476Z,50.40
2023-04-26T13:10:20.204Z,50.48
2023-04-26T13:15:24.836Z,50.47
2023-04-26T13:20:29.594Z,50.40
2023-04-26T13:25:33.541Z,49.95
2023-04-26T13:30:36.720Z,49.56
2023-04-26T13:35:39.297Z,49.44
2023-04-26T13:40:41.890Z,49.27
2023-04-26T13:45:44.496Z,49.35
2023-04-26T13:50:47.081Z,49.47
2023-04-26T13:55:49.756Z,49.52
2023-04-26T14:00:52.613Z,49.49
2023-04-26T14:05:56.655Z,49.40
2023-04-26T14:10:59.628Z,49.38
2023-04-26T14:16:02.248Z,49.76
2023-04-26T14:21:05.329Z,50.13
2023-04-26T14:26:08.490Z,50.26
2023-04-26T14:31:11.302Z,50.47
2023-04-26T14:36:13.936Z,50.59
2023-04-26T14:41:18.346Z,50.53
2023-04-26T14:46:21.068Z,50.50
2023-04-26T14:51:24.058Z,50.44
2023-04-26T14:56:26.982Z,50.31
2023-04-26T15:01:31.263Z,50.29
2023-04-26T15:06:34.322Z,50.24
2023-04-26T15:11:36.929Z,50.17
2023-04-26T15:16:39.746Z,50.10
2023-04-26T15:21:42.511Z,50.08
2023-04-26T15:26:45.052Z,50.13
2023-04-26T15:31:47.690Z,50.08
2023-04-26T15:36:50.694Z,50.06
2023-04-26T15:41:53.331Z,49.71
2023-04-26T15:46:55.884Z,48.50
2023-04-26T15:51:58.764Z,48.04
2023-04-26T15:57:02.827Z,46.83
2023-04-26T16:02:06.150Z,46.10
2023-04-26T16:07:08.866Z,45.88
2023-04-26T16:12:11.977Z,45.78
2023-04-26T16:17:14.580Z,45.51
2023-04-26T16:22:17.761Z,45.28
2023-04-26T16:27:23.478Z,45.10
2023-04-26T16:32:26.566Z,44.67
2023-04-26T16:37:30.457Z,44.03
2023-04-26T16:42:33.293Z,43.92
2023-04-26T16:47:36.380Z,43.99
2023-04-26T16:52:39.118Z,43.92
2023-04-26T16:57:42.252Z,43.61
2023-04-26T17:02:45.034Z,43.58
2023-04-26T17:07:47.705Z,43.61
2023-04-26T17:12:50.680Z,43.38
2023-04-26T17:17:53.455Z,43.51
2023-04-26T17:22:56.818Z,43.67
2023-04-26T17:27:59.642Z,43.88
2023-04-26T17:33:02.898Z,44.12
2023-04-26T17:38:05.862Z,44.01
2023-04-26T17:43:09.011Z,44.03
2023-04-26T17:48:13.448Z,44.04
2023-04-26T17:53:16.380Z,44.15
2023-04-26T17:58:19.213Z,44.38
2023-04-26T18:03:22.087Z,44.62
2023-04-26T18:08:24.909Z,44.78
2023-04-26T18:13:28.341Z,44.96
2023-04-26T18:18:30.905Z,45.15
2023-04-26T18:23:33.533Z,45.21
2023-04-26T18:28:36.158Z,45.32
2023-04-26T18:33:38.770Z,45.47
2023-04-26T18:38:41.373Z,45.55
2023-04-26T18:43:43.952Z,45.81
2023-04-26T18:48:47.366Z,45.94
2023-04-26T18:53:50.105Z,46.04
2023-04-26T18:58:52.777Z,46.10
2023-04-26T19:03:55.729Z,46.26
2023-04-26T19:08:59.502Z,46.43
2023-04-26T19:14:02.088Z,46.61
2023-04-26T19:19:05.615Z,46.85
2023-04-26T19:24:09.135Z,47.08
2023-04-26T19:29:11.793Z,47.35
2023-04-26T19:34:14.401Z,47.53
2023-04-26T19:39:17.245Z,47.65
2023-04-26T19:44:22.524Z,47.78
2023-04-26T19:49:27.210Z,47.92
2023-04-26T19:54:32.283Z,48.10
2023-04-26T19:59:34.900Z,48.37
2023-04-26T20:04:37.559Z,48.67
2023-04-26T20:09:40.247Z,48.81
2023-04-26T20:14:42.822Z,49.12
2023-04-26T20:19:45.404Z,49.35
2023-04-26T20:24:47.961Z,49.56
2023-04-26T20:29:50.590Z,49.64
2023-04-26T20:34:53.631Z,49.83
2023-04-26T20:39:57.472Z,50.13
2023-04-26T20:45:02.224Z,50.27
2023-04-26T20:50:06.507Z,50.39
2023-04-26T20:55:09.411Z,50.58
2023-04-26T21:00:13.158Z,50.79
2023-04-26T21:05:15.818Z,50.97
2023-04-26T21:10:18.823Z,51.13
2023-04-26T21:15:21.722Z,51.26
2023-04-26T21:20:24.693Z,51.45
2023-04-26T21:25:28.000Z,51.62
2023-04-26T21:30:31.273Z,51.75
2023-04-26T21:35:34.231Z,51.99
2023-04-26T21:40:37.027Z,52.17
2023-04-26T21:45:39.963Z,52.34
2023-04-26T21:50:43.064Z,52.62
2023-04-26T21:55:53.032Z,52.74
2023-04-26T22:00:56.465Z,52.76
2023-04-26T22:05:59.338Z,53.04
2023-04-26T22:11:02.945Z,53.29
2023-04-26T22:16:06.797Z,53.42
2023-04-26T22:21:09.666Z,53.49
2023-04-26T22:26:12.533Z,53.76
2023-04-26T22:31:15.486Z,53.90
2023-04-26T22:36:18.491Z,54.15
2023-04-26T22:41:21.794Z,54.37
2023-04-26T22:46:24.677Z,54.49
2023-04-26T22:51:27.801Z,54.65
2023-04-26T22:56:30.909Z,54.89
2023-04-26T23:01:33.949Z,55.01
2023-04-26T23:06:37.120Z,55.27
2023-04-26T23:11:40.016Z,55.49
2023-04-26T23:16:42.920Z,55.75
2023-04-26T23:21:46.042Z,55.92
2023-04-26T23:26:49.046Z,56.15
2023-04-26T23:31:51.993Z,56.37
2023-04-26T23:36:54.952Z,56.51
2023-04-26T23:41:57.834Z,56.65
2023-04-26T23:47:01.121Z,56.88
2023-04-26T23:52:04.317Z,57.00
2023-04-26T23:57:07.258Z,57.16
